createdAt,value
2019-05-11T00:01:32.308Z,12.90
2019-05-11T00:04:03.065Z,13.00
2019-05-11T00:06:34.034Z,13.00
2019-05-11T00:09:06.576Z,12.90
2019-05-11T00:11:37.564Z,12.90
2019-05-11T00:14:08.246Z,12.90
2019-05-11T00:16:39.686Z,12.90
2019-05-11T00:19:12.376Z,12.90
2019-05-11T00:21:42.951Z,12.90
2019-05-11T00:24:13.650Z,12.90
2019-05-11T00:26:45.088Z,12.90
2019-05-11T00:29:15.693Z,12.90
2019-05-11T00:31:46.349Z,12.90
2019-05-11T00:34:18.030Z,12.90
2019-05-11T00:36:49.056Z,13.00
2019-05-11T00:39:19.717Z,13.10
2019-05-11T00:41:51.195Z,13.20
2019-05-11T00:44:22.152Z,13.30
2019-05-11T00:46:52.942Z,13.40
2019-05-11T00:49:23.817Z,13.50
2019-05-11T00:51:54.844Z,13.50
2019-05-11T00:54:25.561Z,13.50
2019-05-11T00:56:56.326Z,13.50
2019-05-11T00:59:26.893Z,13.40
2019-05-11T01:01:57.928Z,13.40
2019-05-11T01:04:28.929Z,13.40
2019-05-11T01:07:00.041Z,13.30
2019-05-11T01:09:30.838Z,13.40
2019-05-11T01:12:01.925Z,13.40
2019-05-11T01:14:32.555Z,13.40
2019-05-11T01:17:03.409Z,13.30
2019-05-11T01:19:35.035Z,13.30
2019-05-11T01:22:06.566Z,13.40
2019-05-11T01:24:37.794Z,13.40
2019-05-11T01:27:08.532Z,13.50
2019-05-11T01:29:39.520Z,13.40
2019-05-11T01:32:10.791Z,13.50
2019-05-11T01:34:42.585Z,13.50
2019-05-11T01:37:13.421Z,13.40
2019-05-11T01:39:44.771Z,13.40
2019-05-11T01:42:15.467Z,13.20
2019-05-11T01:44:46.395Z,13.20
2019-05-11T01:47:19.079Z,13.20
2019-05-11T01:49:49.707Z,13.20
2019-05-11T01:52:21.358Z,13.20
2019-05-11T01:54:52.013Z,13.30
2019-05-11T01:57:23.028Z,13.20
2019-05-11T01:59:54.299Z,13.20
2019-05-11T02:02:25.217Z,13.20
2019-05-11T02:05:13.626Z,13.20
2019-05-11T02:07:45.724Z,13.10
2019-05-11T02:10:16.487Z,13.10
2019-05-11T02:12:47.058Z,13.00
2019-05-11T02:15:18.175Z,12.90
2019-05-11T02:17:49.341Z,13.00
2019-05-11T02:20:20.051Z,13.10
2019-05-11T02:22:50.628Z,13.00
2019-05-11T02:25:22.755Z,13.00
2019-05-11T02:27:53.327Z,12.90
2019-05-11T02:30:24.197Z,12.90
2019-05-11T02:32:54.808Z,12.90
2019-05-11T02:35:25.352Z,12.80
2019-05-11T02:37:57.051Z,12.80
2019-05-11T02:40:28.282Z,12.90
2019-05-11T02:43:00.315Z,13.00
2019-05-11T02:45:40.449Z,13.10
2019-05-11T02:48:11.480Z,13.10
2019-05-11T02:50:43.667Z,13.10
2019-05-11T02:53:14.199Z,13.20
2019-05-11T02:55:47.425Z,13.20
2019-05-11T02:58:18.060Z,13.30
2019-05-11T03:00:48.786Z,13.20
2019-05-11T03:03:19.216Z,13.30
2019-05-11T03:05:49.808Z,13.20
2019-05-11T03:08:20.797Z,13.30
2019-05-11T03:10:51.636Z,13.20
2019-05-11T03:13:22.335Z,13.20
2019-05-11T03:15:53.105Z,13.40
2019-05-11T03:18:23.792Z,13.30
2019-05-11T03:20:54.363Z,13.20
2019-05-11T03:23:25.414Z,13.20
2019-05-11T03:25:56.001Z,13.20
2019-05-11T03:28:28.381Z,13.30
2019-05-11T03:30:59.353Z,13.20
2019-05-11T03:33:30.890Z,13.20
2019-05-11T03:36:01.804Z,13.20
2019-05-11T03:38:33.102Z,13.00
2019-05-11T03:41:03.803Z,13.00
2019-05-11T03:43:34.525Z,13.00
2019-05-11T03:46:05.080Z,13.10
2019-05-11T03:48:35.889Z,13.10
2019-05-11T03:51:06.790Z,13.00
2019-05-11T03:53:37.607Z,12.90
2019-05-11T03:56:08.860Z,12.90
2019-05-11T03:58:40.657Z,12.80
2019-05-11T04:01:11.213Z,12.70
2019-05-11T04:03:42.407Z,12.70
2019-05-11T04:06:14.327Z,12.70
2019-05-11T04:08:45.281Z,12.60
2019-05-11T04:11:16.177Z,12.60
2019-05-11T04:13:46.731Z,12.60
2019-05-11T04:16:17.887Z,12.50
2019-05-11T04:18:48.836Z,12.50
2019-05-11T04:21:19.901Z,12.50
2019-05-11T04:23:51.417Z,12.50
2019-05-11T04:26:22.223Z,12.50
2019-05-11T04:28:52.733Z,12.50
2019-05-11T04:31:23.728Z,12.50
2019-05-11T04:33:54.709Z,12.80
2019-05-11T04:36:25.597Z,12.90
2019-05-11T04:38:56.916Z,13.00
2019-05-11T04:41:27.475Z,13.10
2019-05-11T04:43:58.320Z,13.10
2019-05-11T04:46:29.125Z,13.10
2019-05-11T04:48:59.863Z,13.10
2019-05-11T04:51:30.538Z,13.10
2019-05-11T04:54:01.605Z,13.10
2019-05-11T04:56:32.262Z,13.20
2019-05-11T04:59:03.599Z,13.10
2019-05-11T05:01:34.611Z,13.10
2019-05-11T05:04:14.070Z,13.10
2019-05-11T05:06:39.028Z,13.10
2019-05-11T05:09:09.872Z,13.10
2019-05-11T05:11:40.522Z,13.20
2019-05-11T05:14:11.378Z,13.20
2019-05-11T05:16:42.091Z,13.40
2019-05-11T05:19:13.185Z,13.30
2019-05-11T05:21:44.763Z,13.30
2019-05-11T05:24:15.488Z,13.30
2019-05-11T05:26:46.415Z,13.20
2019-05-11T05:29:17.024Z,13.20
2019-05-11T05:31:48.279Z,13.20
2019-05-11T05:34:18.944Z,13.30
2019-05-11T05:36:49.802Z,13.30
2019-05-11T05:39:20.315Z,13.40
2019-05-11T05:41:57.031Z,13.50
2019-05-11T05:44:23.183Z,13.60
2019-05-11T05:46:53.709Z,13.60
2019-05-11T05:49:25.100Z,13.70
2019-05-11T05:51:58.235Z,13.80
2019-05-11T05:54:27.940Z,13.80
2019-05-11T05:56:58.816Z,13.80
2019-05-11T05:59:30.120Z,13.80
2019-05-11T06:02:00.726Z,13.90
2019-05-11T06:04:32.486Z,13.90
2019-05-11T06:07:03.357Z,13.90
2019-05-11T06:09:33.985Z,13.90
2019-05-11T06:12:04.555Z,14.00
2019-05-11T06:14:35.571Z,14.10
2019-05-11T06:17:06.107Z,14.10
2019-05-11T06:19:37.172Z,14.10
2019-05-11T06:22:08.026Z,14.20
2019-05-11T06:24:38.975Z,14.30
2019-05-11T06:27:09.876Z,14.30
2019-05-11T06:29:41.232Z,14.40
2019-05-11T06:32:12.414Z,14.50
2019-05-11T06:34:43.055Z,14.60
2019-05-11T06:37:13.792Z,14.80
2019-05-11T06:39:44.591Z,15.00
2019-05-11T06:42:15.612Z,15.40
2019-05-11T06:44:46.549Z,15.70
2019-05-11T06:47:17.626Z,16.00
2019-05-11T06:49:48.923Z,16.10
2019-05-11T06:52:19.936Z,16.30
2019-05-11T06:54:50.764Z,16.30
2019-05-11T06:57:21.603Z,16.40
2019-05-11T06:59:52.718Z,16.50
2019-05-11T07:02:25.095Z,16.40
2019-05-11T07:04:55.828Z,16.70
2019-05-11T07:07:27.819Z,16.60
2019-05-11T07:09:59.258Z,16.80
2019-05-11T07:12:30.503Z,17.00
2019-05-11T07:15:01.648Z,17.10
2019-05-11T07:17:32.800Z,17.20
2019-05-11T07:20:06.577Z,17.20
2019-05-11T07:22:37.503Z,17.20
2019-05-11T07:25:09.043Z,17.30
2019-05-11T07:27:40.377Z,17.30
2019-05-11T07:30:11.905Z,17.30
2019-05-11T07:32:44.347Z,17.30
2019-05-11T07:35:15.519Z,17.40
2019-05-11T07:37:48.506Z,17.50
2019-05-11T07:40:19.848Z,17.50
2019-05-11T07:42:51.186Z,17.50
2019-05-11T07:45:22.027Z,17.40
2019-05-11T07:47:54.194Z,17.20
2019-05-11T07:50:25.367Z,17.10
2019-05-11T07:52:58.675Z,17.00
2019-05-11T07:55:29.827Z,16.90
2019-05-11T07:58:01.532Z,17.00
2019-05-11T08:00:37.477Z,17.00
2019-05-11T08:03:09.023Z,17.00
2019-05-11T08:05:40.211Z,17.00
2019-05-11T08:08:10.814Z,17.00
2019-05-11T08:10:41.927Z,17.10
2019-05-11T08:13:12.712Z,17.10
2019-05-11T08:15:43.392Z,17.20
2019-05-11T08:18:13.931Z,17.20
2019-05-11T08:20:47.873Z,17.20
2019-05-11T08:23:18.176Z,17.20
2019-05-11T08:25:49.262Z,16.90
2019-05-11T08:28:21.005Z,16.70
2019-05-11T08:30:51.655Z,16.60
2019-05-11T08:33:22.663Z,16.40
2019-05-11T08:35:53.134Z,16.40
2019-05-11T08:38:25.472Z,16.40
2019-05-11T08:40:56.171Z,16.40
2019-05-11T08:43:28.507Z,16.40
2019-05-11T08:45:59.289Z,16.50
2019-05-11T08:48:29.852Z,16.60
2019-05-11T08:51:00.734Z,16.80
2019-05-11T08:53:33.297Z,17.00
2019-05-11T08:56:04.023Z,17.10
2019-05-11T08:58:34.837Z,17.20
2019-05-11T09:01:05.601Z,17.40
2019-05-11T09:03:38.646Z,17.50
2019-05-11T09:06:08.985Z,17.60
2019-05-11T09:08:39.636Z,17.60
2019-05-11T09:11:10.698Z,17.70
2019-05-11T09:13:42.719Z,17.70
2019-05-11T09:16:15.781Z,17.80
2019-05-11T09:18:47.916Z,17.80
2019-05-11T09:21:19.269Z,17.90
2019-05-11T09:23:50.032Z,18.00
2019-05-11T09:26:20.988Z,18.20
2019-05-11T09:28:51.599Z,18.50
2019-05-11T09:31:22.146Z,18.60
2019-05-11T09:33:52.864Z,18.80
2019-05-11T09:36:23.742Z,18.90
2019-05-11T09:38:57.980Z,18.90
2019-05-11T09:41:28.953Z,18.70
2019-05-11T09:44:00.113Z,18.60
2019-05-11T09:46:30.627Z,18.50
2019-05-11T09:49:01.593Z,18.70
2019-05-11T09:51:32.148Z,19.00
2019-05-11T09:54:02.695Z,19.30
2019-05-11T09:56:33.308Z,19.40
2019-05-11T09:59:05.068Z,19.80
2019-05-11T10:01:37.809Z,19.70
2019-05-11T10:04:09.129Z,19.80
2019-05-11T10:06:40.424Z,19.70
2019-05-11T10:09:11.320Z,19.60
2019-05-11T10:11:41.855Z,19.80
2019-05-11T10:14:13.621Z,19.80
2019-05-11T10:16:44.267Z,19.70
2019-05-11T10:19:17.692Z,19.50
2019-05-11T10:21:48.797Z,19.40
2019-05-11T11:47:31.881Z,26.20
2019-05-11T11:50:08.918Z,26.10
2019-05-11T11:52:39.233Z,25.80
2019-05-11T11:55:09.991Z,25.50
2019-05-11T11:57:41.399Z,25.60
2019-05-11T12:00:15.434Z,25.80
2019-05-11T12:02:48.728Z,25.60
2019-05-11T12:05:20.760Z,26.30
2019-05-11T12:07:51.857Z,26.50
2019-05-11T12:10:22.545Z,26.50
2019-05-11T12:12:59.260Z,26.50
2019-05-11T12:15:31.240Z,26.40
2019-05-11T12:18:05.027Z,26.60
2019-05-11T12:20:35.770Z,26.80
2019-05-11T12:23:10.571Z,27.00
2019-05-11T12:25:41.323Z,27.60
2019-05-11T12:28:12.105Z,28.00
2019-05-11T12:30:43.292Z,29.10
2019-05-11T12:33:13.851Z,29.70
2019-05-11T12:35:44.527Z,29.80
2019-05-11T12:38:15.072Z,30.20
2019-05-11T12:40:47.666Z,30.20
2019-05-11T12:43:22.436Z,29.50
2019-05-11T12:45:52.182Z,28.40
2019-05-11T12:48:23.583Z,27.50
2019-05-11T12:50:55.319Z,27.20
2019-05-11T12:53:28.070Z,26.90
2019-05-11T12:55:59.051Z,26.00
2019-05-11T12:58:34.291Z,25.00
2019-05-11T13:01:05.002Z,24.80
2019-05-11T13:03:38.397Z,24.90
2019-05-11T13:06:08.376Z,24.60
2019-05-11T13:08:39.727Z,24.30
2019-05-11T13:11:10.364Z,24.10
2019-05-11T13:13:42.085Z,23.70
2019-05-11T13:16:14.424Z,23.50
2019-05-11T13:18:45.498Z,23.20
2019-05-11T13:21:18.341Z,23.10
2019-05-11T13:23:50.002Z,22.90
2019-05-11T13:26:21.314Z,22.90
2019-05-11T13:28:51.970Z,22.80
2019-05-11T13:31:27.682Z,22.60
2019-05-11T13:33:58.565Z,22.50
2019-05-11T13:36:30.072Z,22.40
2019-05-11T13:39:01.029Z,22.60
2019-05-11T13:41:31.636Z,22.80
2019-05-11T13:44:02.376Z,23.00
2019-05-11T13:46:34.147Z,23.00
2019-05-11T13:49:05.140Z,23.00
2019-05-11T13:51:36.130Z,22.70
2019-05-11T13:54:07.907Z,22.60
2019-05-11T13:56:39.026Z,22.70
2019-05-11T13:59:10.898Z,22.70
2019-05-11T14:01:41.888Z,22.50
2019-05-11T14:04:13.924Z,22.30
2019-05-11T14:06:44.524Z,21.90
2019-05-11T14:09:18.259Z,21.80
2019-05-11T14:11:48.498Z,21.70
2019-05-11T14:14:19.446Z,21.70
2019-05-11T14:16:50.579Z,21.70
2019-05-11T14:19:22.069Z,21.80
2019-05-11T14:21:52.626Z,21.70
2019-05-11T14:24:24.151Z,21.60
2019-05-11T14:26:54.655Z,21.50
2019-05-11T14:29:27.714Z,21.10
2019-05-11T14:31:58.274Z,20.80
2019-05-11T14:34:28.979Z,20.40
2019-05-11T14:36:59.550Z,19.30
2019-05-11T14:39:30.827Z,18.30
2019-05-11T14:42:02.342Z,17.50
2019-05-11T14:44:33.148Z,16.80
2019-05-11T14:47:03.714Z,16.30
2019-05-11T14:49:35.217Z,15.90
2019-05-11T14:52:08.070Z,15.60
2019-05-11T14:54:38.729Z,15.30
2019-05-11T14:57:10.744Z,15.00
2019-05-11T14:59:41.870Z,14.80
2019-05-11T15:02:31.113Z,14.60
2019-05-11T15:05:01.965Z,14.50
2019-05-11T15:07:33.063Z,14.40
2019-05-11T15:10:04.000Z,14.40
2019-05-11T15:12:37.994Z,14.30
2019-05-11T15:15:11.854Z,14.30
2019-05-11T15:17:42.739Z,14.30
2019-05-11T15:20:14.504Z,14.20
2019-05-11T15:22:45.102Z,14.10
2019-05-11T15:25:19.398Z,14.00
2019-05-11T15:27:49.775Z,14.00
2019-05-11T15:30:21.172Z,13.80
2019-05-11T15:32:51.988Z,13.80
2019-05-11T15:35:23.730Z,13.80
2019-05-11T15:37:54.714Z,13.70
2019-05-11T15:40:27.912Z,13.70
2019-05-11T15:42:58.748Z,13.80
2019-05-11T15:45:29.387Z,13.90
2019-05-11T15:47:59.984Z,13.90
2019-05-11T15:50:30.795Z,13.80
2019-05-11T15:53:01.741Z,13.80
2019-05-11T15:55:32.780Z,13.80
2019-05-11T15:58:05.232Z,13.80
2019-05-11T16:00:39.768Z,13.40
2019-05-11T16:03:08.329Z,13.70
2019-05-11T16:05:39.477Z,13.70
2019-05-11T16:08:10.451Z,13.60
2019-05-11T16:10:43.089Z,13.60
2019-05-11T16:13:14.342Z,13.50
2019-05-11T16:15:47.561Z,13.40
2019-05-11T16:18:18.852Z,13.60
2019-05-11T16:20:51.303Z,13.50
2019-05-11T16:23:22.526Z,13.40
2019-05-11T16:25:58.090Z,13.30
2019-05-11T16:28:30.794Z,13.20
2019-05-11T16:31:02.820Z,13.10
2019-05-11T16:33:33.435Z,13.00
2019-05-11T16:36:09.012Z,12.90
2019-05-11T16:38:42.323Z,12.80
2019-05-11T16:41:13.656Z,12.60
2019-05-11T16:43:44.795Z,12.50
2019-05-11T16:46:17.738Z,12.40
2019-05-11T16:48:51.198Z,12.40
2019-05-11T16:51:22.011Z,12.50
2019-05-11T16:53:53.167Z,12.70
2019-05-11T16:56:23.898Z,12.70
2019-05-11T16:58:55.034Z,12.80
2019-05-11T17:01:25.863Z,12.80
2019-05-11T17:03:57.828Z,12.80
2019-05-11T17:06:32.006Z,12.80
2019-05-11T17:09:03.306Z,12.80
2019-05-11T17:11:33.854Z,12.90
2019-05-11T17:14:04.520Z,13.00
2019-05-11T17:16:35.156Z,12.90
2019-05-11T17:19:07.867Z,12.90
2019-05-11T17:21:39.775Z,13.00
2019-05-11T17:24:10.505Z,13.00
2019-05-11T17:26:41.549Z,12.70
2019-05-11T17:29:12.166Z,13.10
2019-05-11T17:31:43.407Z,13.10
2019-05-11T17:34:17.709Z,13.10
2019-05-11T17:36:47.591Z,13.10
2019-05-11T17:39:19.978Z,13.10
2019-05-11T17:41:55.253Z,13.00
2019-05-11T17:44:26.808Z,13.00
2019-05-11T17:46:57.840Z,12.90
2019-05-11T17:49:29.050Z,12.90
2019-05-11T17:51:59.613Z,12.70
2019-05-11T17:54:30.775Z,12.70
2019-05-11T17:57:01.288Z,12.40
2019-05-11T17:59:32.550Z,12.40
2019-05-11T18:02:03.780Z,12.40
2019-05-11T18:04:36.483Z,12.40
2019-05-11T18:07:07.698Z,12.40
2019-05-11T18:09:38.609Z,12.40
2019-05-11T18:12:11.160Z,12.30
2019-05-11T18:14:42.802Z,12.30
2019-05-11T18:17:13.325Z,12.30
2019-05-11T18:19:44.507Z,12.20
2019-05-11T18:22:17.854Z,12.10
2019-05-11T18:24:49.031Z,12.10
2019-05-11T18:27:19.704Z,12.10
2019-05-11T18:29:50.236Z,12.10
2019-05-11T18:32:20.799Z,12.10
2019-05-11T18:34:54.139Z,12.10
2019-05-11T18:37:28.100Z,12.20
2019-05-11T18:39:59.140Z,12.10
2019-05-11T18:42:30.059Z,12.20
2019-05-11T18:45:02.682Z,12.20
2019-05-11T18:47:34.475Z,12.30
2019-05-11T18:50:05.690Z,12.30
2019-05-11T18:52:36.310Z,12.40
2019-05-11T18:55:08.371Z,12.40
2019-05-11T18:57:39.229Z,12.30
2019-05-11T19:00:10.430Z,12.10
2019-05-11T19:02:41.834Z,12.10
2019-05-11T19:05:12.742Z,12.00
2019-05-11T19:07:44.061Z,11.90
2019-05-11T19:10:15.117Z,12.00
2019-05-11T19:12:48.628Z,11.90
2019-05-11T19:15:19.693Z,11.90
2019-05-11T19:17:51.523Z,12.00
2019-05-11T19:20:22.508Z,12.10
2019-05-11T19:22:54.037Z,12.20
2019-05-11T19:25:24.911Z,12.20
2019-05-11T19:27:55.524Z,12.30
2019-05-11T19:30:27.732Z,12.30
2019-05-11T19:32:59.067Z,12.30
2019-05-11T19:35:29.994Z,12.30
2019-05-11T19:38:00.908Z,12.40
2019-05-11T19:40:31.787Z,12.40
2019-05-11T19:43:02.407Z,12.60
2019-05-11T19:45:33.754Z,12.60
2019-05-11T19:48:04.451Z,12.60
2019-05-11T19:50:35.275Z,12.60
2019-05-11T19:53:08.202Z,12.60
2019-05-11T19:55:38.902Z,12.70
2019-05-11T19:58:09.688Z,12.50
2019-05-11T20:00:48.835Z,12.60
2019-05-11T20:03:19.664Z,12.60
2019-05-11T20:05:50.591Z,12.60
2019-05-11T20:08:21.368Z,12.50
2019-05-11T20:10:53.084Z,12.30
2019-05-11T20:13:24.379Z,12.40
2019-05-11T20:15:57.684Z,12.40
2019-05-11T20:18:28.972Z,12.40
2019-05-11T20:20:59.722Z,12.40
2019-05-11T20:23:30.889Z,12.40
2019-05-11T20:26:02.108Z,12.50
2019-05-11T20:28:33.391Z,12.60
2019-05-11T20:31:07.840Z,12.50
2019-05-11T20:33:38.515Z,12.40
2019-05-11T20:36:09.541Z,12.50
2019-05-11T20:38:40.295Z,12.40
2019-05-11T20:41:11.916Z,12.40
2019-05-11T20:43:43.137Z,12.40
2019-05-11T20:46:13.988Z,12.40
2019-05-11T20:48:44.922Z,12.30
2019-05-11T20:51:32.184Z,12.30
2019-05-11T20:53:48.964Z,12.40
2019-05-11T20:56:20.033Z,12.30
2019-05-11T20:58:59.413Z,12.30
2019-05-11T21:01:30.340Z,12.30
2019-05-11T21:04:02.330Z,12.30
2019-05-11T21:06:32.928Z,12.30
2019-05-11T21:09:04.449Z,12.40
2019-05-11T21:11:36.384Z,12.40
2019-05-11T21:14:08.058Z,12.50
2019-05-11T21:16:39.641Z,12.50
2019-05-11T21:19:10.187Z,12.60
2019-05-11T21:21:49.835Z,12.60
2019-05-11T21:24:13.203Z,12.50
2019-05-11T21:26:44.258Z,12.50
2019-05-11T21:29:15.236Z,12.50
2019-05-11T21:31:48.377Z,12.60
2019-05-11T21:34:18.768Z,12.50
2019-05-11T21:36:49.901Z,12.50
2019-05-11T21:39:20.475Z,12.50
2019-05-11T21:41:52.242Z,12.40
2019-05-11T21:44:23.386Z,12.30
2019-05-11T21:46:54.138Z,12.30
2019-05-11T21:49:25.299Z,12.40
2019-05-11T21:52:04.157Z,12.40
2019-05-11T21:54:30.313Z,12.50
2019-05-11T21:57:00.714Z,12.40
2019-05-11T21:59:32.952Z,12.40
2019-05-11T22:02:03.601Z,12.30
2019-05-11T22:04:34.214Z,12.30
2019-05-11T22:07:07.858Z,12.20
2019-05-11T22:09:38.405Z,12.20
2019-05-11T22:12:10.853Z,12.20
2019-05-11T22:14:42.643Z,12.20
2019-05-11T22:17:13.232Z,12.20
2019-05-11T22:19:44.098Z,12.20
2019-05-11T22:22:23.625Z,12.20
2019-05-11T22:24:47.748Z,12.20
2019-05-11T22:27:18.741Z,12.30
2019-05-11T22:29:49.686Z,12.30
2019-05-11T22:32:20.627Z,12.20
2019-05-11T22:34:51.981Z,12.20
2019-05-11T22:37:23.193Z,12.20
2019-05-11T22:39:53.907Z,12.10
2019-05-11T22:42:24.635Z,12.00
2019-05-11T22:44:55.587Z,12.00
2019-05-11T22:47:28.255Z,12.00
2019-05-11T22:49:58.485Z,11.90
2019-05-11T22:52:36.092Z,12.00
2019-05-11T22:55:03.242Z,12.00
2019-05-11T22:57:33.776Z,12.20
2019-05-11T23:00:07.994Z,12.10
2019-05-11T23:02:38.463Z,12.10
2019-05-11T23:05:10.020Z,12.10
2019-05-11T23:07:41.757Z,12.20
2019-05-11T23:10:12.719Z,12.30
2019-05-11T23:12:43.927Z,12.30
2019-05-11T23:15:15.179Z,12.30
2019-05-11T23:17:45.775Z,12.40
2019-05-11T23:20:16.766Z,12.40
2019-05-11T23:22:57.357Z,12.40
2019-05-11T23:25:22.024Z,12.50
2019-05-11T23:27:52.574Z,12.50
2019-05-11T23:30:23.305Z,12.60
2019-05-11T23:32:54.525Z,12.60
2019-05-11T23:35:25.264Z,12.40
2019-05-11T23:37:57.994Z,12.50
2019-05-11T23:40:28.577Z,12.50
2019-05-11T23:42:59.294Z,12.40
2019-05-11T23:45:30.085Z,12.40
2019-05-11T23:48:00.638Z,12.40
2019-05-11T23:50:34.052Z,12.40
2019-05-11T23:53:09.681Z,12.50
2019-05-11T23:55:39.681Z,12.50
2019-05-11T23:58:14.727Z,12.50
